Time;durP1;ratioP1;P1;durP2;ratioP2;P2;SDS_P1;SDS_P2;PMS_P1;PMS_P2;Temp;Humidity;BMP_temperature;BMP_pressure;BME280_temperature;BME280_humidity;BME280_pressure;Samples;Min_cycle;Max_cycle;Signal;HPM_P1;HPM_P2
2023/08/18 00:02:06;;;;;;;11.95;10.13;;;;;;;18.91;100.00;101176.69;4983016;28;20035;-71
2023/08/18 00:04:31;;;;;;;11.82;10.63;;;;;;;18.89;100.00;101178.53;4968465;28;20500;-71
2023/08/18 00:06:56;;;;;;;14.98;11.45;;;;;;;18.86;100.00;101179.50;4984359;28;20038;-71
2023/08/18 00:09:22;;;;;;;14.88;12.20;;;;;;;18.84;100.00;101173.47;4983205;28;20133;-71
2023/08/18 00:11:48;;;;;;;16.50;12.05;;;;;;;18.79;100.00;101171.88;4966222;28;20105;-71
2023/08/18 00:14:13;;;;;;;12.90;10.32;;;;;;;18.77;100.00;101177.16;4988754;28;20042;-71
2023/08/18 00:16:39;;;;;;;13.70;10.40;;;;;;;18.74;100.00;101166.78;4984282;28;20038;-71
2023/08/18 00:19:04;;;;;;;13.35;10.85;;;;;;;18.72;100.00;101168.63;4983789;28;20066;-71
2023/08/18 00:21:29;;;;;;;16.27;11.10;;;;;;;18.71;100.00;101155.56;4982330;28;20035;-71
2023/08/18 00:23:55;;;;;;;11.23;9.20;;;;;;;18.68;100.00;101153.91;4985472;28;20520;-71
2023/08/18 00:26:20;;;;;;;11.77;10.57;;;;;;;18.68;100.00;101161.78;4982527;28;20022;-71
2023/08/18 00:28:45;;;;;;;10.85;9.63;;;;;;;18.67;100.00;101159.22;4987089;28;20057;-71
2023/08/18 00:31:11;;;;;;;17.83;13.63;;;;;;;18.65;100.00;101161.88;4986053;28;20035;-71
2023/08/18 00:33:36;;;;;;;14.10;11.65;;;;;;;18.62;100.00;101161.13;4982112;28;20061;-71
2023/08/18 00:36:01;;;;;;;13.32;10.27;;;;;;;18.59;100.00;101156.84;4981348;28;20037;-71
2023/08/18 00:38:27;;;;;;;10.35;9.25;;;;;;;18.56;100.00;101154.34;4978742;28;20026;-71
2023/08/18 00:40:55;;;;;;;16.05;10.23;;;;;;;18.55;100.00;101147.41;4969416;28;20114;-71
2023/08/18 00:43:21;;;;;;;12.35;10.02;;;;;;;18.56;100.00;101148.25;4939936;28;20044;-71
2023/08/18 00:45:47;;;;;;;10.80;9.43;;;;;;;18.55;100.00;101151.78;4978607;28;20034;-71
2023/08/18 00:48:13;;;;;;;15.38;12.57;;;;;;;18.55;100.00;101152.66;4980417;28;20042;-71
2023/08/18 00:50:39;;;;;;;14.75;11.90;;;;;;;18.56;100.00;101153.47;4984341;28;20497;-71
2023/08/18 00:53:05;;;;;;;16.25;13.15;;;;;;;18.54;100.00;101153.56;4985745;28;20049;-71
2023/08/18 00:55:30;;;;;;;19.33;14.20;;;;;;;18.53;100.00;101150.06;4979865;28;20034;-71
2023/08/18 00:57:57;;;;;;;16.38;13.07;;;;;;;18.50;100.00;101150.19;4984230;28;20047;-71
2023/08/18 01:00:23;;;;;;;17.45;14.10;;;;;;;18.48;100.00;101146.78;4993594;28;20416;-71
2023/08/18 01:02:52;;;;;;;16.02;14.13;;;;;;;18.46;100.00;101148.56;4962593;28;20034;-71
2023/08/18 01:05:18;;;;;;;18.17;12.90;;;;;;;18.43;100.00;101138.19;4984121;28;20133;-71
2023/08/18 01:07:44;;;;;;;17.95;13.60;;;;;;;18.39;100.00;101141.84;4983941;28;20038;-71
2023/08/18 01:10:10;;;;;;;13.82;12.27;;;;;;;18.36;100.00;101134.09;4987180;28;20030;-71
2023/08/18 01:12:42;;;;;;;15.07;11.65;;;;;;;18.32;100.00;101135.09;4972314;28;20516;-71
2023/08/18 01:15:22;;;;;;;14.88;11.73;;;;;;;18.29;100.00;101140.44;4973048;28;20057;-71
2023/08/18 01:17:54;;;;;;;13.68;11.80;;;;;;;18.28;100.00;101137.91;4970274;28;20022;-71
2023/08/18 01:20:19;;;;;;;14.75;12.63;;;;;;;18.26;100.00;101131.84;4963226;28;20101;-71
2023/08/18 01:22:48;;;;;;;14.35;12.55;;;;;;;18.25;100.00;101135.38;4968201;28;20050;-71
2023/08/18 01:25:14;;;;;;;15.70;12.38;;;;;;;18.21;100.00;101134.63;4963917;28;20042;-71
2023/08/18 01:27:39;;;;;;;14.52;12.25;;;;;;;18.20;100.00;101132.03;4964860;28;20070;-71
2023/08/18 01:30:05;;;;;;;14.45;12.95;;;;;;;18.18;100.00;101131.25;4972837;28;20035;-71
2023/08/18 01:32:39;;;;;;;15.10;12.77;;;;;;;18.18;100.00;101133.88;4958818;28;20038;-71
2023/08/18 01:35:06;;;;;;;18.33;14.82;;;;;;;18.17;100.00;101124.28;4973140;28;20365;-72
2023/08/18 01:37:33;;;;;;;18.75;15.07;;;;;;;18.16;100.00;101131.31;4972013;28;20057;-71
2023/08/18 01:39:59;;;;;;;18.50;15.00;;;;;;;18.16;100.00;101131.31;4966915;28;20719;-71
2023/08/18 01:42:26;;;;;;;21.02;15.73;;;;;;;18.17;100.00;101124.28;4968081;28;20050;-71
2023/08/18 01:44:52;;;;;;;23.98;17.90;;;;;;;18.15;100.00;101134.84;4964514;28;20117;-72
2023/08/18 01:47:17;;;;;;;25.60;16.90;;;;;;;18.18;100.00;101128.63;4969822;28;20087;-71
2023/08/18 01:49:42;;;;;;;21.77;18.02;;;;;;;18.17;100.00;101113.84;4964038;28;20046;-71
2023/08/18 01:52:08;;;;;;;22.70;18.15;;;;;;;18.18;100.00;101113.81;4969679;28;20031;-71
2023/08/18 01:54:33;;;;;;;25.65;18.00;;;;;;;18.18;100.00;101119.03;4963543;28;20043;-71
2023/08/18 01:56:59;;;;;;;19.88;16.75;;;;;;;18.17;100.00;101111.22;4963932;28;20205;-71
2023/08/18 01:59:24;;;;;;;21.23;16.05;;;;;;;18.15;100.00;101115.66;4963998;28;20085;-71
2023/08/18 02:01:49;;;;;;;21.60;17.63;;;;;;;18.13;100.00;101114.88;4966502;28;20043;-71
2023/08/18 02:04:15;;;;;;;24.08;18.98;;;;;;;18.11;100.00;101114.03;4964735;28;20168;-71
2023/08/18 02:06:40;;;;;;;22.48;18.38;;;;;;;18.08;100.00;101112.38;4963468;28;20045;-71
2023/08/18 02:09:05;;;;;;;26.92;21.20;;;;;;;18.07;100.00;101104.59;4969353;28;20105;-71
2023/08/18 02:11:31;;;;;;;29.13;20.02;;;;;;;18.06;100.00;101102.88;4966248;28;20034;-70
2023/08/18 02:13:57;;;;;;;19.85;16.20;;;;;;;18.03;100.00;101109.06;4964762;28;20043;-71
2023/08/18 02:16:22;;;;;;;26.13;19.13;;;;;;;18.02;100.00;101111.75;4966434;28;20118;-71
2023/08/18 02:18:48;;;;;;;25.52;19.92;;;;;;;17.99;100.00;101104.84;4934833;28;20047;-71
2023/08/18 02:21:14;;;;;;;29.50;20.92;;;;;;;17.97;100.00;101106.66;4963566;28;20038;-71
2023/08/18 02:23:40;;;;;;;26.02;18.75;;;;;;;17.95;100.00;101100.63;4965550;28;20026;-71
2023/08/18 02:26:06;;;;;;;26.38;18.77;;;;;;;17.91;100.00;101105.13;4964584;28;20047;-70
2023/08/18 02:28:32;;;;;;;23.17;17.30;;;;;;;17.89;100.00;101096.47;4963543;28;20177;-72
2023/08/18 02:31:02;;;;;;;21.17;16.73;;;;;;;17.88;100.00;101101.75;4974473;28;20034;-71
2023/08/18 02:33:31;;;;;;;21.98;17.02;;;;;;;17.84;100.00;101100.97;4966819;28;20039;-71
2023/08/18 02:35:59;;;;;;;19.25;15.02;;;;;;;17.83;100.00;101098.41;4962941;28;20101;-71
2023/08/18 02:38:28;;;;;;;23.23;16.80;;;;;;;17.80;100.00;101104.59;4985519;28;20022;-71
2023/08/18 02:40:53;;;;;;;22.85;17.27;;;;;;;17.79;100.00;101097.63;4966608;28;20105;-71
2023/08/18 02:43:22;;;;;;;20.08;15.95;;;;;;;17.79;100.00;101102.88;4994326;28;20038;-71
2023/08/18 02:45:47;;;;;;;23.73;17.25;;;;;;;17.77;100.00;101096.84;4992818;28;20027;-71
2023/08/18 02:48:13;;;;;;;19.13;16.83;;;;;;;17.75;100.00;101100.41;4989539;28;20064;-71
2023/08/18 02:50:39;;;;;;;23.88;18.60;;;;;;;17.73;100.00;101100.44;4987669;28;20026;-71
2023/08/18 02:53:06;;;;;;;25.05;18.25;;;;;;;17.73;100.00;101102.19;4986191;28;20719;-71
2023/08/18 02:55:32;;;;;;;22.30;15.95;;;;;;;17.73;100.00;101100.44;4984530;28;20057;-71
2023/08/18 02:57:58;;;;;;;23.80;16.60;;;;;;;17.73;100.00;101103.06;4960970;28;20416;-71
2023/08/18 03:00:23;;;;;;;23.88;19.38;;;;;;;17.72;100.00;101095.28;4988527;28;20045;-71
2023/08/18 03:02:49;;;;;;;21.73;16.88;;;;;;;17.70;100.00;101095.31;4968625;28;20045;-71
2023/08/18 03:05:15;;;;;;;22.40;16.98;;;;;;;17.68;100.00;101094.53;4968415;28;20041;-71
2023/08/18 03:07:40;;;;;;;26.75;18.60;;;;;;;17.68;100.00;101098.88;4967573;28;20073;-71
2023/08/18 03:10:06;;;;;;;25.83;18.73;;;;;;;17.66;100.00;101091.06;4962738;28;20070;-71
2023/08/18 03:12:32;;;;;;;26.55;18.00;;;;;;;17.62;100.00;101086.88;4977027;28;20038;-71
2023/08/18 03:14:57;;;;;;;23.05;16.95;;;;;;;17.58;100.00;101095.72;4987209;28;20616;-71
2023/08/18 03:17:22;;;;;;;21.60;15.15;;;;;;;17.55;100.00;101098.41;4969382;28;20102;-71
2023/08/18 03:19:48;;;;;;;20.25;15.38;;;;;;;17.55;100.00;101097.56;4980512;28;20050;-71
2023/08/18 03:22:13;;;;;;;21.25;16.50;;;;;;;17.54;100.00;101096.72;4984401;28;20039;-71
2023/08/18 03:24:38;;;;;;;20.00;15.95;;;;;;;17.55;100.00;101108.88;4985769;28;20042;-71
2023/08/18 03:27:04;;;;;;;23.45;17.52;;;;;;;17.57;100.00;101108.84;4974360;28;20038;-71
2023/08/18 03:29:30;;;;;;;22.42;16.35;;;;;;;17.57;100.00;101106.22;4972973;28;20042;-71
2023/08/18 03:31:55;;;;;;;20.52;16.30;;;;;;;17.57;100.00;101106.22;4984182;28;20127;-71
2023/08/18 03:34:20;;;;;;;29.10;17.85;;;;;;;17.58;100.00;101107.91;4982116;28;20520;-71
2023/08/18 03:36:46;;;;;;;20.70;16.30;;;;;;;17.57;100.00;101104.47;4982976;28;20069;-70
2023/08/18 03:39:12;;;;;;;21.88;15.60;;;;;;;17.56;100.00;101104.50;4980357;28;20055;-71
2023/08/18 03:41:38;;;;;;;22.63;16.80;;;;;;;17.55;100.00;101102.78;4965915;28;20047;-71
2023/08/18 03:44:03;;;;;;;23.25;17.90;;;;;;;17.56;100.00;101109.72;4984305;28;20096;-71
2023/08/18 03:46:29;;;;;;;24.58;17.85;;;;;;;17.56;100.00;101104.50;4983464;28;20054;-71
2023/08/18 03:48:54;;;;;;;26.13;19.50;;;;;;;17.53;100.00;101108.06;4979702;28;20070;-71
2023/08/18 03:51:20;;;;;;;24.73;19.20;;;;;;;17.51;100.00;101107.28;4982996;28;20132;-71
2023/08/18 03:53:46;;;;;;;24.65;17.48;;;;;;;17.49;100.00;101105.59;4983135;28;20030;-71
2023/08/18 03:56:11;;;;;;;22.60;17.95;;;;;;;17.48;100.00;101103.91;4982682;28;20109;-71
2023/08/18 03:58:37;;;;;;;22.73;17.15;;;;;;;17.46;100.00;101103.06;4980757;28;20038;-72
2023/08/18 04:01:08;;;;;;;25.00;18.58;;;;;;;17.45;100.00;101104.00;4985837;28;20042;-71
2023/08/18 04:03:35;;;;;;;21.45;17.10;;;;;;;17.44;100.00;101103.13;4981151;28;20105;-71
2023/08/18 04:06:01;;;;;;;24.42;17.02;;;;;;;17.44;100.00;101105.75;4985040;28;20030;-71
2023/08/18 04:08:26;;;;;;;23.67;17.23;;;;;;;17.43;100.00;101106.63;4987005;28;20041;-71
2023/08/18 04:10:52;;;;;;;21.33;15.95;;;;;;;17.42;100.00;101110.19;4968950;28;20034;-71
2023/08/18 04:13:17;;;;;;;26.42;19.10;;;;;;;17.42;100.00;101110.19;4994471;28;20045;-71
2023/08/18 04:15:42;;;;;;;27.45;18.75;;;;;;;17.42;100.00;101107.56;4992885;28;20030;-72
2023/08/18 04:18:08;;;;;;;23.75;17.88;;;;;;;17.43;100.00;101109.25;4969686;28;20046;-71
2023/08/18 04:20:34;;;;;;;22.17;16.55;;;;;;;17.43;100.00;101112.72;4984091;28;20105;-71
2023/08/18 04:23:00;;;;;;;32.08;20.98;;;;;;;17.46;100.00;101119.63;4982449;28;20054;-71
2023/08/18 04:25:25;;;;;;;29.33;19.23;;;;;;;17.48;100.00;101115.22;4982414;28;20057;-71
2023/08/18 04:27:50;;;;;;;28.02;20.20;;;;;;;17.50;100.00;101121.25;4983297;28;20045;-70
2023/08/18 04:30:16;;;;;;;28.38;19.38;;;;;;;17.52;100.00;101121.19;4982261;28;20050;-71
2023/08/18 04:32:41;;;;;;;28.98;18.90;;;;;;;17.53;100.00;101115.91;4964097;28;20115;-71
2023/08/18 04:35:07;;;;;;;26.15;18.10;;;;;;;17.56;100.00;101112.34;4983219;28;20045;-71
2023/08/18 04:37:32;;;;;;;29.63;19.42;;;;;;;17.58;100.00;101121.84;4987833;28;20106;-71
2023/08/18 04:39:57;;;;;;;24.42;17.48;;;;;;;17.59;100.00;101120.09;4994892;28;20035;-71
2023/08/18 04:42:23;;;;;;;30.95;20.52;;;;;;;17.63;100.00;101119.09;5001478;28;20106;-71
2023/08/18 04:44:48;;;;;;;24.23;16.88;;;;;;;17.69;100.00;101119.75;4986976;28;20022;-71
2023/08/18 04:47:13;;;;;;;24.75;18.85;;;;;;;17.72;100.00;101114.41;4970086;28;20054;-71
2023/08/18 04:49:39;;;;;;;26.58;18.67;;;;;;;17.77;100.00;101109.06;4965793;28;20034;-71
2023/08/18 04:52:05;;;;;;;25.73;18.63;;;;;;;17.79;100.00;101115.94;4984547;28;20046;-72
2023/08/18 04:54:31;;;;;;;27.92;19.83;;;;;;;17.84;100.00;101110.56;4982541;28;20065;-72
2023/08/18 04:57:03;;;;;;;29.70;21.00;;;;;;;17.87;100.00;101113.94;4984691;28;20042;-71
2023/08/18 04:59:29;;;;;;;32.60;20.60;;;;;;;17.93;100.00;101120.75;4983461;28;20025;-71
2023/08/18 05:01:54;;;;;;;28.45;20.40;;;;;;;17.95;100.00;101117.19;4982341;28;20054;-71
2023/08/18 05:04:20;;;;;;;25.35;18.00;;;;;;;18.01;100.00;101112.66;4982079;28;20038;-71
2023/08/18 05:06:45;;;;;;;33.03;20.92;;;;;;;18.04;100.00;101120.41;4962612;28;20444;-71
2023/08/18 05:09:10;;;;;;;32.17;20.73;;;;;;;18.09;100.00;101114.09;4981188;28;20674;-70
2023/08/18 05:11:36;;;;;;;35.40;21.95;;;;;;;18.12;100.00;101100.06;4984001;28;20095;-71
2023/08/18 05:14:02;;;;;;;38.65;22.05;;;;;;;18.13;100.00;101105.25;4983638;28;20120;-71
2023/08/18 05:16:27;;;;;;;42.95;25.25;;;;;;;18.16;100.00;101104.28;4978037;28;20050;-68
2023/08/18 05:18:53;;;;;;;37.17;22.55;;;;;;;18.19;100.00;101109.44;4983716;28;20074;-71
2023/08/18 05:21:18;;;;;;;35.47;23.90;;;;;;;18.22;100.00;101115.41;4969067;28;20069;-71
2023/08/18 05:23:43;;;;;;;39.50;23.52;;;;;;;18.25;100.00;101117.06;4980666;28;20038;-71
2023/08/18 05:26:09;;;;;;;42.63;25.02;;;;;;;18.25;100.00;101117.06;4980263;28;20046;-70
2023/08/18 05:28:34;;;;;;;43.55;24.58;;;;;;;18.26;100.00;101122.22;4981315;28;20050;-68
2023/08/18 05:31:00;;;;;;;36.72;23.92;;;;;;;18.30;100.00;101125.59;4963035;28;20777;-72
2023/08/18 05:33:25;;;;;;;36.40;23.45;;;;;;;18.34;100.00;101124.59;4984191;28;20046;-72
2023/08/18 05:35:51;;;;;;;35.72;23.23;;;;;;;18.39;100.00;101125.28;4971135;28;20173;-71
2023/08/18 05:38:16;;;;;;;42.17;22.75;;;;;;;18.46;100.00;101118.94;4982017;28;20544;-70
2023/08/18 05:40:44;;;;;;;44.25;26.77;;;;;;;18.48;100.00;101117.13;4978609;28;20046;-72
2023/08/18 05:43:12;;;;;;;51.50;25.30;;;;;;;18.45;100.00;101123.31;4998151;28;20041;-71
2023/08/18 05:45:38;;;;;;;39.25;25.10;;;;;;;18.50;100.00;101117.91;4999850;28;20046;-72
2023/08/18 05:48:04;;;;;;;44.60;25.45;;;;;;;18.49;100.00;101131.94;4992031;28;20507;-70
2023/08/18 05:50:30;;;;;;;45.72;24.75;;;;;;;18.49;100.00;101137.16;4971293;28;20026;-70
2023/08/18 05:52:56;;;;;;;42.17;24.88;;;;;;;18.52;100.00;101139.69;4989740;28;20427;-70
2023/08/18 05:55:22;;;;;;;43.92;25.08;;;;;;;18.50;100.00;101139.72;4990061;28;20042;-70
2023/08/18 05:57:48;;;;;;;54.95;27.80;;;;;;;18.49;100.00;101139.78;4985575;28;20117;-71
2023/08/18 06:00:14;;;;;;;48.72;25.40;;;;;;;18.48;100.00;101141.53;4984548;28;20598;-71
2023/08/18 06:02:40;;;;;;;46.72;25.65;;;;;;;18.49;100.00;101145.84;4985942;28;20403;-68
2023/08/18 06:05:06;;;;;;;55.92;27.73;;;;;;;18.50;100.00;101144.09;4971230;28;20042;-69
2023/08/18 06:07:31;;;;;;;54.72;29.48;;;;;;;18.50;100.00;101139.72;4971357;28;20038;-69
2023/08/18 06:09:56;;;;;;;53.03;27.83;;;;;;;18.50;100.00;101144.09;4985387;28;20034;-70
2023/08/18 06:12:22;;;;;;;57.30;27.77;;;;;;;18.58;100.00;101142.09;4960505;28;20030;-69
2023/08/18 06:14:47;;;;;;;48.22;26.05;;;;;;;18.64;100.00;101138.38;4990326;28;20883;-69
2023/08/18 06:17:12;;;;;;;52.75;28.73;;;;;;;18.69;100.00;101137.31;4991853;28;20090;-70
2023/08/18 06:19:38;;;;;;;57.88;28.83;;;;;;;18.78;100.00;101138.75;4987610;28;20781;-69
2023/08/18 06:22:03;;;;;;;45.17;23.50;;;;;;;18.97;100.00;101138.03;4987915;28;20057;-70
2023/08/18 06:24:29;;;;;;;54.97;29.15;;;;;;;19.04;100.00;101136.03;4984734;28;20042;-70
2023/08/18 06:26:54;;;;;;;52.10;28.58;;;;;;;19.22;100.00;101139.75;4988511;28;20040;-70
2023/08/18 06:29:20;;;;;;;46.40;26.73;;;;;;;19.28;100.00;101142.13;4990630;28;20429;-69
2023/08/18 06:31:45;;;;;;;44.75;25.85;;;;;;;19.48;100.00;101136.97;4967755;28;20043;-70
2023/08/18 06:34:11;;;;;;;42.80;25.25;;;;;;;19.57;100.00;101137.47;4967561;28;20530;-70
2023/08/18 06:36:36;;;;;;;44.17;26.42;;;;;;;19.39;100.00;101134.69;4968205;28;20529;-70
2023/08/18 06:39:02;;;;;;;45.80;27.15;;;;;;;19.32;100.00;101141.13;4970307;28;20105;-69
2023/08/18 06:41:27;;;;;;;49.22;28.35;;;;;;;19.30;100.00;101145.53;4970877;28;20074;-70
2023/08/18 06:43:53;;;;;;;46.53;27.30;;;;;;;19.47;100.00;101140.53;4965283;28;20046;-70
2023/08/18 06:46:18;;;;;;;40.25;24.33;;;;;;;19.67;100.00;101140.59;4965049;28;20031;-68
2023/08/18 06:48:44;;;;;;;49.05;26.98;;;;;;;19.78;100.00;101134.91;4964869;28;20082;-70
2023/08/18 06:51:09;;;;;;;50.42;28.50;;;;;;;19.85;100.00;101133.78;4969626;28;20042;-70
2023/08/18 06:53:35;;;;;;;45.38;25.75;;;;;;;19.95;100.00;101125.47;4949057;28;20126;-70
2023/08/18 06:56:00;;;;;;;46.05;27.17;;;;;;;19.95;100.00;101125.47;4965043;28;20401;-70
2023/08/18 06:58:26;;;;;;;46.50;26.08;;;;;;;20.04;100.00;101138.19;4961109;28;20178;-70
2023/08/18 07:00:52;;;;;;;43.50;25.20;;;;;;;20.12;100.00;101133.50;4968700;28;20062;-70
2023/08/18 07:03:17;;;;;;;48.70;28.83;;;;;;;20.13;100.00;101134.34;4969784;28;20727;-70
2023/08/18 07:05:43;;;;;;;49.83;29.45;;;;;;;20.16;100.00;101131.59;4970572;28;20011;-69
2023/08/18 07:08:08;;;;;;;49.38;29.58;;;;;;;20.08;99.77;101131.06;4963197;28;20038;-69
2023/08/18 07:10:34;;;;;;;48.10;30.52;;;;;;;19.97;100.00;101134.16;4967239;28;20398;-70
2023/08/18 07:12:59;;;;;;;49.90;29.25;;;;;;;20.05;100.00;101133.81;4975242;28;20058;-69
2023/08/18 07:15:25;;;;;;;42.80;27.05;;;;;;;20.17;100.00;101135.94;4974124;28;20062;-70
2023/08/18 07:17:50;;;;;;;49.35;29.85;;;;;;;20.13;100.00;101139.59;4973334;28;20116;-68
2023/08/18 07:20:15;;;;;;;49.03;29.15;;;;;;;20.24;100.00;101133.91;4967961;28;20031;-69
2023/08/18 07:22:41;;;;;;;51.65;30.65;;;;;;;20.23;100.00;101134.81;4963342;28;20055;-70
2023/08/18 07:25:09;;;;;;;46.67;27.73;;;;;;;20.38;100.00;101142.03;4967947;28;20505;-70
2023/08/18 07:27:34;;;;;;;51.25;29.05;;;;;;;20.41;99.56;101139.28;4967367;28;20035;-70
2023/08/18 07:29:59;;;;;;;53.15;30.70;;;;;;;20.49;98.97;101142.41;4969022;28;20030;-69
2023/08/18 07:32:25;;;;;;;52.40;30.33;;;;;;;20.57;98.62;101148.22;4968217;28;20023;-70
2023/08/18 07:34:50;;;;;;;46.20;28.42;;;;;;;20.65;99.32;101131.19;4967083;28;20133;-69
2023/08/18 07:37:15;;;;;;;47.65;29.25;;;;;;;20.72;99.09;101141.47;4964570;28;20050;-70
2023/08/18 07:39:41;;;;;;;46.50;29.95;;;;;;;20.70;98.81;101131.88;4966628;28;20043;-70
2023/08/18 07:42:08;;;;;;;45.28;28.40;;;;;;;20.69;98.69;101138.03;4968188;28;20507;-70
2023/08/18 07:44:33;;;;;;;42.53;26.90;;;;;;;20.77;98.28;101128.97;4968251;28;20034;-70
2023/08/18 07:46:58;;;;;;;38.85;26.20;;;;;;;20.83;98.26;101134.81;4970475;28;20705;-70
2023/08/18 07:49:24;;;;;;;40.15;25.88;;;;;;;21.04;97.54;101130.38;4974588;28;20066;-70
2023/08/18 07:51:49;;;;;;;41.88;26.50;;;;;;;21.14;96.89;101121.97;4974300;28;20055;-70
2023/08/18 07:54:15;;;;;;;36.95;25.45;;;;;;;21.06;96.15;101120.63;4969403;28;20054;-70
2023/08/18 07:56:40;;;;;;;39.25;26.38;;;;;;;21.04;96.41;101130.38;4967078;28;20484;-70
2023/08/18 07:59:06;;;;;;;36.45;24.42;;;;;;;21.27;96.16;101136.28;4967048;28;20046;-70
2023/08/18 08:01:31;;;;;;;36.80;24.95;;;;;;;21.18;95.47;101130.59;4982382;28;20039;-70
2023/08/18 08:03:57;;;;;;;36.78;24.88;;;;;;;21.09;96.18;101128.38;4984097;28;20043;-70
2023/08/18 08:06:22;;;;;;;34.08;24.42;;;;;;;21.21;96.73;101135.69;4981873;28;20045;-70
2023/08/18 08:08:47;;;;;;;36.17;24.10;;;;;;;21.23;95.47;101137.31;4967683;28;20041;-70
2023/08/18 08:11:14;;;;;;;39.00;23.73;;;;;;;21.21;96.22;101140.97;4973257;28;20315;-70
2023/08/18 08:13:40;;;;;;;37.13;23.98;;;;;;;21.36;95.42;101139.38;4956555;28;20077;-70
2023/08/18 08:16:05;;;;;;;33.00;22.63;;;;;;;21.35;95.67;101150.81;4985294;28;20054;-70
2023/08/18 08:18:33;;;;;;;32.80;22.63;;;;;;;21.39;95.59;101147.13;4966748;28;20377;-70
2023/08/18 08:21:00;;;;;;;28.83;20.55;;;;;;;21.43;94.07;101148.72;4986510;28;20193;-71
2023/08/18 08:23:25;;;;;;;28.98;20.33;;;;;;;21.74;93.31;101146.34;4987754;28;20026;-69
2023/08/18 08:25:51;;;;;;;27.63;18.52;;;;;;;21.82;92.80;101143.34;4970606;28;20524;-70
2023/08/18 08:28:16;;;;;;;26.02;17.58;;;;;;;21.79;91.68;101142.56;4987387;28;20042;-70
2023/08/18 08:30:44;;;;;;;27.63;17.30;;;;;;;22.02;92.15;101144.09;4969873;28;20034;-70
2023/08/18 08:33:11;;;;;;;22.15;16.42;;;;;;;22.23;91.77;101136.88;4985471;28;20033;-70
2023/08/18 08:35:37;;;;;;;25.08;17.50;;;;;;;22.16;90.85;101144.25;4984102;28;20495;-70
2023/08/18 08:38:03;;;;;;;20.27;14.70;;;;;;;22.41;91.02;101135.13;4967796;28;20038;-70
2023/08/18 08:40:28;;;;;;;20.77;15.90;;;;;;;22.83;88.91;101135.50;4986728;28;20155;-71
2023/08/18 08:42:54;;;;;;;20.38;15.38;;;;;;;23.09;87.20;101134.13;4981094;28;20050;-70
2023/08/18 08:45:20;;;;;;;22.48;15.88;;;;;;;23.28;85.52;101126.94;4993302;28;20529;-70
2023/08/18 08:47:48;;;;;;;17.23;12.80;;;;;;;23.48;84.62;101125.84;4985089;28;20077;-70
2023/08/18 08:50:16;;;;;;;19.38;14.05;;;;;;;23.52;84.51;101120.28;4987061;28;20035;-70
2023/08/18 08:52:41;;;;;;;20.60;14.65;;;;;;;23.49;83.13;101119.63;4954005;28;20536;-71
2023/08/18 08:55:07;;;;;;;20.30;13.90;;;;;;;23.61;83.38;101113.66;4960232;28;20039;-71
2023/08/18 08:57:33;;;;;;;17.33;13.90;;;;;;;23.72;83.21;101109.44;4973661;28;20031;-70
2023/08/18 09:00:00;;;;;;;18.45;12.77;;;;;;;23.53;84.19;101122.00;4965138;28;20511;-70
2023/08/18 09:02:26;;;;;;;14.70;12.32;;;;;;;23.80;83.61;101117.81;4980825;28;20057;-70
2023/08/18 09:04:51;;;;;;;12.82;9.98;;;;;;;23.90;82.56;101110.19;4979279;28;20034;-70
2023/08/18 09:07:17;;;;;;;16.45;12.07;;;;;;;23.95;81.97;101114.31;4978385;28;20046;-70
2023/08/18 09:09:43;;;;;;;14.50;10.32;;;;;;;24.20;82.06;101112.84;4988281;28;20507;-70
2023/08/18 09:12:10;;;;;;;13.95;11.10;;;;;;;24.04;80.86;101104.16;4980241;28;20514;-70
2023/08/18 09:14:38;;;;;;;13.07;10.75;;;;;;;23.83;81.91;101111.50;4968636;28;20098;-70
2023/08/18 09:17:04;;;;;;;14.90;10.77;;;;;;;23.83;83.89;101127.34;4982331;28;20031;-70
2023/08/18 09:19:30;;;;;;;14.63;11.25;;;;;;;23.66;82.45;101108.97;4991523;28;20038;-70
2023/08/18 09:21:59;;;;;;;13.40;10.80;;;;;;;23.64;82.70;101118.75;4993158;28;20039;-70
2023/08/18 09:24:25;;;;;;;14.43;10.77;;;;;;;23.77;83.91;101110.06;4993184;28;20053;-70
2023/08/18 09:26:51;;;;;;;15.68;10.88;;;;;;;23.71;83.95;101114.84;4991201;28;20030;-71
2023/08/18 09:29:17;;;;;;;13.63;10.75;;;;;;;23.83;84.72;101111.50;4992905;28;20048;-71
2023/08/18 09:31:45;;;;;;;18.05;11.85;;;;;;;23.87;82.83;101107.72;4974279;28;20628;-70
2023/08/18 09:34:20;;;;;;;14.75;10.52;;;;;;;23.99;83.23;101107.03;4967346;28;20030;-70
2023/08/18 09:36:54;;;;;;;14.45;10.00;;;;;;;23.98;83.66;101113.28;4969823;28;20045;-70
2023/08/18 09:39:20;;;;;;;11.37;9.47;;;;;;;24.03;83.10;101107.72;4971613;28;20034;-70
2023/08/18 09:41:52;;;;;;;11.73;10.15;;;;;;;23.97;82.52;101109.78;4972798;28;20099;-71
2023/08/18 09:44:19;;;;;;;11.85;8.73;;;;;;;24.08;82.48;101106.50;4968473;28;20073;-70
2023/08/18 09:46:56;;;;;;;9.68;8.40;;;;;;;24.23;82.28;101102.09;4967788;28;20035;-70
2023/08/18 09:49:23;;;;;;;9.63;7.90;;;;;;;24.30;82.70;101095.53;4966324;28;20066;-71
2023/08/18 09:52:06;;;;;;;8.77;7.75;;;;;;;24.41;82.70;101093.94;4969581;28;20031;-70
2023/08/18 09:54:42;;;;;;;10.32;8.18;;;;;;;24.42;81.96;101078.94;4967403;28;20642;-70
2023/08/18 09:57:15;;;;;;;9.65;8.25;;;;;;;24.53;81.13;101085.25;4952806;28;20082;-70
2023/08/18 09:59:56;;;;;;;10.82;8.77;;;;;;;24.49;79.98;101081.09;4965909;28;20035;-70
2023/08/18 10:02:28;;;;;;;9.38;7.65;;;;;;;24.62;80.94;101083.84;4963746;28;20049;-71
2023/08/18 10:04:54;;;;;;;9.27;8.38;;;;;;;24.75;80.83;101084.84;4982863;28;20500;-70
2023/08/18 10:07:20;;;;;;;10.48;7.18;;;;;;;24.84;80.50;101078.97;4988017;28;20385;-70
2023/08/18 10:09:47;;;;;;;8.40;7.47;;;;;;;24.92;80.26;101063.47;4989380;28;20037;-70
2023/08/18 10:12:12;;;;;;;13.07;7.80;;;;;;;25.01;79.79;101067.31;4972206;28;20046;-70
2023/08/18 10:14:39;;;;;;;9.52;7.45;;;;;;;25.10;79.39;101061.44;4984768;28;20030;-70
2023/08/18 10:17:06;;;;;;;7.60;6.78;;;;;;;25.15;78.19;101047.91;4991937;28;20054;-70
2023/08/18 10:19:58;;;;;;;8.95;7.72;;;;;;;25.22;78.85;101063.31;4991032;28;20035;-70
2023/08/18 10:22:26;;;;;;;10.63;8.70;;;;;;;25.24;77.71;101053.47;4989344;28;20046;-70
2023/08/18 10:24:52;;;;;;;9.02;8.13;;;;;;;25.22;77.62;101049.22;4990827;28;20042;-70
2023/08/18 10:27:26;;;;;;;11.32;8.00;;;;;;;25.35;79.23;101061.56;4991096;28;20515;-70
2023/08/18 10:29:58;;;;;;;10.23;8.45;;;;;;;25.42;78.11;101048.81;4987117;28;20496;-70
2023/08/18 10:32:24;;;;;;;9.63;6.68;;;;;;;25.53;78.72;101055.09;4987949;28;20045;-70
2023/08/18 10:34:50;;;;;;;12.70;7.43;;;;;;;25.51;77.66;101062.31;4970939;28;20026;-70
2023/08/18 10:37:20;;;;;;;10.77;7.40;;;;;;;25.61;77.83;101055.47;4989622;28;20628;-69
2023/08/18 10:39:46;;;;;;;9.00;8.02;;;;;;;25.75;77.76;101056.34;4974399;28;20041;-70
2023/08/18 10:42:15;;;;;;;11.27;8.45;;;;;;;25.83;77.01;101046.09;4990191;28;20103;-69
2023/08/18 10:45:00;;;;;;;9.30;8.25;;;;;;;25.88;77.15;101043.97;4991410;28;20492;-69
2023/08/18 10:47:31;;;;;;;9.52;8.52;;;;;;;25.94;76.84;101032.97;4985857;28;20074;-70
2023/08/18 10:49:57;;;;;;;8.32;7.53;;;;;;;26.04;76.30;101036.69;4968392;28;20043;-70
2023/08/18 10:52:25;;;;;;;12.43;8.43;;;;;;;26.03;75.18;101019.09;4967887;28;20043;-69
2023/08/18 10:54:50;;;;;;;9.15;8.25;;;;;;;26.10;75.37;101015.06;4969416;28;20575;-69
2023/08/18 10:57:16;;;;;;;12.50;8.70;;;;;;;26.06;74.16;101000.34;4982676;28;20039;-69
2023/08/18 10:59:41;;;;;;;10.02;8.63;;;;;;;26.16;76.25;101022.63;4977503;28;20038;-69
2023/08/18 11:02:07;;;;;;;10.90;8.80;;;;;;;26.36;75.20;101006.19;4976786;28;20063;-69
2023/08/18 11:04:33;;;;;;;10.27;8.63;;;;;;;26.48;75.74;101010.63;4973318;28;20050;-70